createdAt,value
2022-09-26T00:01:07.832Z,3.03
2022-09-26T00:03:35.765Z,3.27
2022-09-26T00:06:03.519Z,3.40
2022-09-26T00:08:31.140Z,4.03
2022-09-26T00:10:59.343Z,4.10
2022-09-26T00:13:27.045Z,3.93
2022-09-26T00:15:54.733Z,3.33
2022-09-26T00:18:24.194Z,3.60
2022-09-26T00:20:52.255Z,3.67
2022-09-26T00:23:19.937Z,3.43
2022-09-26T00:25:47.720Z,3.27
2022-09-26T00:28:15.636Z,3.20
2022-09-26T00:30:44.620Z,3.40
2022-09-26T00:33:12.607Z,3.37
2022-09-26T00:35:41.682Z,3.17
2022-09-26T00:38:09.306Z,3.70
2022-09-26T00:40:37.204Z,3.50
2022-09-26T00:43:04.880Z,3.17
2022-09-26T00:45:33.193Z,3.60
2022-09-26T00:48:03.601Z,3.60
2022-09-26T00:50:33.958Z,3.30
2022-09-26T00:53:06.330Z,3.17
2022-09-26T00:55:37.148Z,3.10
2022-09-26T00:58:07.426Z,3.73
2022-09-26T01:00:35.227Z,3.40
2022-09-26T01:03:03.190Z,3.43
2022-09-26T01:05:32.518Z,3.40
2022-09-26T01:08:00.466Z,3.50
2022-09-26T01:10:30.423Z,3.17
2022-09-26T01:12:58.783Z,3.40
2022-09-26T01:15:26.750Z,3.83
2022-09-26T01:17:54.304Z,3.57
2022-09-26T01:20:28.107Z,3.47
2022-09-26T01:23:11.665Z,4.10
2022-09-26T01:25:57.293Z,3.93
2022-09-26T01:28:36.187Z,3.53
2022-09-26T01:31:11.864Z,3.80
2022-09-26T01:33:57.237Z,3.40
2022-09-26T01:36:46.387Z,3.93
2022-09-26T01:39:27.687Z,4.33
2022-09-26T01:42:00.219Z,3.87
2022-09-26T01:44:31.390Z,4.10
2022-09-26T01:47:04.007Z,4.10
2022-09-26T01:49:35.242Z,3.93
2022-09-26T01:52:06.895Z,5.60
2022-09-26T01:54:37.679Z,4.13
2022-09-26T01:57:07.699Z,4.90
2022-09-26T01:59:39.026Z,5.00
2022-09-26T02:02:12.051Z,5.60
2022-09-26T02:04:42.488Z,5.37
2022-09-26T02:07:13.079Z,4.83
2022-09-26T02:09:44.220Z,5.67
2022-09-26T02:12:14.547Z,5.50
2022-09-26T02:14:43.221Z,5.20
2022-09-26T02:17:14.346Z,5.20
2022-09-26T02:19:47.892Z,5.40
2022-09-26T02:22:15.445Z,5.40
2022-09-26T02:24:42.983Z,6.23
2022-09-26T02:27:10.547Z,6.10
2022-09-26T02:29:39.365Z,5.80
2022-09-26T02:32:12.783Z,6.77
2022-09-26T02:34:42.811Z,5.97
2022-09-26T02:37:10.534Z,6.43
2022-09-26T02:39:38.598Z,6.67
2022-09-26T02:42:13.874Z,5.90
2022-09-26T02:44:55.070Z,5.80
2022-09-26T02:47:55.795Z,5.63
2022-09-26T02:50:49.302Z,5.73
2022-09-26T02:53:25.066Z,5.93
2022-09-26T02:55:58.151Z,6.10
2022-09-26T02:58:36.290Z,5.53
2022-09-26T03:01:10.491Z,6.23
2022-09-26T03:03:41.736Z,5.90
2022-09-26T03:06:14.463Z,5.73
2022-09-26T03:08:44.323Z,6.23
2022-09-26T03:11:14.399Z,6.03
2022-09-26T03:13:43.024Z,6.10
2022-09-26T03:16:12.290Z,6.10
2022-09-26T03:18:44.969Z,6.27
2022-09-26T03:21:14.938Z,6.67
2022-09-26T03:23:42.885Z,6.83
2022-09-26T03:26:12.092Z,6.33
2022-09-26T03:28:39.822Z,6.33
2022-09-26T03:31:07.361Z,7.40
2022-09-26T03:33:35.249Z,6.00
2022-09-26T03:36:08.711Z,6.20
2022-09-26T03:38:37.643Z,7.13
2022-09-26T03:41:05.600Z,6.73
2022-09-26T03:43:33.269Z,7.00
2022-09-26T03:46:03.449Z,7.07
2022-09-26T03:48:31.199Z,7.20
2022-09-26T03:51:03.239Z,7.00
2022-09-26T03:53:32.776Z,6.90
2022-09-26T03:56:06.070Z,7.47
2022-09-26T03:58:33.670Z,6.67
2022-09-26T04:01:05.889Z,6.50
2022-09-26T04:03:34.989Z,7.60
2022-09-26T04:06:02.686Z,7.23
2022-09-26T04:08:30.363Z,7.33
2022-09-26T04:11:02.958Z,6.40
2022-09-26T04:16:21.029Z,6.40
2022-09-26T04:18:48.976Z,7.03
2022-09-26T04:21:17.173Z,6.57
2022-09-26T04:23:45.457Z,6.30
2022-09-26T04:26:18.828Z,6.30
2022-09-26T04:28:54.503Z,6.70
2022-09-26T04:31:22.448Z,6.67
2022-09-26T04:33:50.679Z,6.27
2022-09-26T04:36:18.885Z,6.13
2022-09-26T04:38:46.459Z,6.70
2022-09-26T04:41:15.473Z,6.17
2022-09-26T04:43:43.569Z,6.37
2022-09-26T04:46:18.584Z,6.40
2022-09-26T04:48:48.833Z,6.10
2022-09-26T04:51:18.062Z,5.80
2022-09-26T04:53:45.832Z,6.30
2022-09-26T04:56:15.127Z,6.33
2022-09-26T04:58:43.377Z,5.70
2022-09-26T05:01:13.916Z,5.53
2022-09-26T05:03:41.939Z,6.07
2022-09-26T05:06:09.822Z,6.10
2022-09-26T05:08:37.589Z,5.97
2022-09-26T05:11:05.468Z,5.83
2022-09-26T05:13:33.203Z,5.97
2022-09-26T05:16:01.745Z,5.70
2022-09-26T05:18:31.229Z,5.50
2022-09-26T05:21:01.495Z,5.50
2022-09-26T05:23:46.696Z,5.87
2022-09-26T05:26:21.126Z,6.20
2022-09-26T05:28:49.862Z,5.57
2022-09-26T05:31:18.982Z,5.87
2022-09-26T05:33:48.089Z,5.50
2022-09-26T05:36:16.860Z,5.50
2022-09-26T05:38:44.441Z,5.60
2022-09-26T05:41:11.391Z,5.50
2022-09-26T05:43:38.944Z,5.00
2022-09-26T05:46:08.272Z,5.27
2022-09-26T05:48:37.927Z,5.47
2022-09-26T05:51:11.047Z,5.00
2022-09-26T05:53:39.156Z,5.30
2022-09-26T05:56:13.727Z,5.80
2022-09-26T05:58:45.523Z,5.40
2022-09-26T06:01:30.220Z,4.80
2022-09-26T06:03:57.759Z,4.70
2022-09-26T06:06:26.815Z,4.53
2022-09-26T06:08:54.322Z,4.60
2022-09-26T06:11:23.750Z,4.20
2022-09-26T06:13:51.837Z,4.37
2022-09-26T06:16:21.312Z,4.00
2022-09-26T06:18:50.615Z,3.63
2022-09-26T06:21:20.233Z,3.43
2022-09-26T06:23:49.231Z,3.90
2022-09-26T06:26:18.820Z,3.43
2022-09-26T06:28:47.068Z,3.37
2022-09-26T06:31:16.668Z,3.27
2022-09-26T06:33:44.804Z,3.40
2022-09-26T06:36:13.013Z,3.07
2022-09-26T06:38:40.527Z,3.40
2022-09-26T06:41:09.328Z,2.90
2022-09-26T06:43:36.992Z,3.00
2022-09-26T06:46:08.220Z,3.47
2022-09-26T06:48:35.895Z,3.67
2022-09-26T06:51:03.441Z,3.27
2022-09-26T06:53:31.338Z,2.97
2022-09-26T06:55:59.758Z,3.70
2022-09-26T06:58:28.757Z,3.70
2022-09-26T07:00:56.525Z,2.73
2022-09-26T07:03:26.560Z,3.47
2022-09-26T07:05:55.764Z,2.90
2022-09-26T07:08:37.413Z,2.93
2022-09-26T07:11:32.774Z,3.10
2022-09-26T07:14:01.835Z,2.73
2022-09-26T07:16:29.928Z,2.67
2022-09-26T07:18:57.912Z,2.40
2022-09-26T07:21:25.427Z,2.80
2022-09-26T07:23:57.490Z,2.70
2022-09-26T07:26:25.174Z,2.70
2022-09-26T07:28:54.937Z,2.83
2022-09-26T07:31:24.463Z,3.03
2022-09-26T07:33:52.763Z,2.70
2022-09-26T07:36:20.915Z,2.30
2022-09-26T07:38:49.177Z,2.70
2022-09-26T07:41:17.080Z,2.97
2022-09-26T07:46:51.110Z,2.40
2022-09-26T07:49:36.124Z,2.20
2022-09-26T07:52:03.625Z,2.67
2022-09-26T07:54:31.312Z,1.93
2022-09-26T07:56:58.912Z,2.30
2022-09-26T07:59:26.415Z,2.20
2022-09-26T08:01:55.687Z,2.40
2022-09-26T08:04:23.246Z,2.27
2022-09-26T08:06:51.143Z,2.30
2022-09-26T08:09:18.937Z,2.60
2022-09-26T08:11:46.748Z,2.70
2022-09-26T08:14:14.379Z,2.30
2022-09-26T08:16:41.969Z,2.30
2022-09-26T08:19:17.427Z,2.40
2022-09-26T08:21:45.236Z,2.67
2022-09-26T08:24:12.894Z,2.10
2022-09-26T08:26:44.473Z,2.57
2022-09-26T08:29:12.385Z,2.70
2022-09-26T08:31:40.377Z,2.23
2022-09-26T08:34:08.651Z,2.80
2022-09-26T08:36:37.903Z,2.20
2022-09-26T08:39:05.811Z,2.50
2022-09-26T08:41:46.008Z,2.30
2022-09-26T08:44:26.217Z,2.00
2022-09-26T08:47:01.183Z,2.30
2022-09-26T08:49:55.045Z,2.13
2022-09-26T08:52:29.069Z,2.03
2022-09-26T08:54:58.541Z,2.07
2022-09-26T08:57:34.956Z,2.20
2022-09-26T09:00:11.734Z,2.50
2022-09-26T09:02:43.982Z,1.93
2022-09-26T09:05:16.585Z,2.20
2022-09-26T09:07:48.724Z,2.33
2022-09-26T09:10:21.502Z,2.17
2022-09-26T09:12:55.734Z,2.40
2022-09-26T09:15:35.686Z,2.23
2022-09-26T09:18:13.932Z,2.10
2022-09-26T09:20:50.501Z,1.90
2022-09-26T09:23:32.369Z,1.93
2022-09-26T09:29:19.280Z,2.63
2022-09-26T09:31:48.195Z,2.63
2022-09-26T09:34:24.153Z,2.30
2022-09-26T09:36:53.975Z,2.70
2022-09-26T09:39:28.959Z,2.83
2022-09-26T09:41:58.680Z,2.70
2022-09-26T09:44:33.184Z,2.60
2022-09-26T09:47:01.732Z,2.77
2022-09-26T09:49:29.352Z,2.50
2022-09-26T09:52:07.556Z,2.47
2022-09-26T09:54:45.285Z,2.50
2022-09-26T09:57:24.354Z,2.50
2022-09-26T10:00:08.946Z,2.37
2022-09-26T10:02:40.831Z,2.70
2022-09-26T10:05:18.523Z,2.80
2022-09-26T10:07:47.470Z,2.80
2022-09-26T10:10:19.410Z,2.67
2022-09-26T10:12:47.428Z,2.70
2022-09-26T10:15:19.622Z,2.80
2022-09-26T10:18:23.541Z,2.57
2022-09-26T10:20:54.134Z,2.80
2022-09-26T10:23:30.720Z,3.10
2022-09-26T10:26:03.095Z,2.70
2022-09-26T10:28:35.205Z,3.33
2022-09-26T10:31:06.691Z,2.70
2022-09-26T10:33:36.174Z,2.60
2022-09-26T10:36:12.461Z,2.70
2022-09-26T10:39:05.317Z,2.80
2022-09-26T10:41:39.994Z,2.13
2022-09-26T10:44:25.202Z,2.60
2022-09-26T10:46:56.332Z,2.73
2022-09-26T10:49:28.736Z,2.87
2022-09-26T10:52:01.926Z,2.33
2022-09-26T10:54:41.144Z,2.17
2022-09-26T10:57:19.237Z,2.70
2022-09-26T10:59:47.350Z,2.93
2022-09-26T11:02:24.269Z,2.30
2022-09-26T11:05:13.093Z,2.70
2022-09-26T11:07:42.731Z,2.80
2022-09-26T11:10:13.778Z,3.03
2022-09-26T11:12:56.995Z,2.80
2022-09-26T11:15:25.136Z,2.60
2022-09-26T11:17:53.828Z,3.03
2022-09-26T11:20:40.596Z,3.07
2022-09-26T11:23:16.376Z,2.60
2022-09-26T11:25:57.723Z,3.17
2022-09-26T11:28:32.533Z,2.57
2022-09-26T11:31:05.435Z,2.50
2022-09-26T11:33:33.002Z,2.70
2022-09-26T11:36:10.905Z,2.27
2022-09-26T11:38:47.441Z,2.20
2022-09-26T11:41:41.989Z,2.10
2022-09-26T11:44:30.515Z,2.40
2022-09-26T11:47:21.145Z,2.10
2022-09-26T11:49:59.951Z,1.80
2022-09-26T11:52:39.962Z,1.63
2022-09-26T11:55:16.100Z,2.20
2022-09-26T11:57:49.285Z,1.90
2022-09-26T12:00:27.247Z,2.07
2022-09-26T12:03:09.307Z,1.60
2022-09-26T12:05:48.794Z,2.00
2022-09-26T12:08:26.497Z,1.67
2022-09-26T12:11:00.278Z,2.10
2022-09-26T12:13:34.259Z,1.80
2022-09-26T12:16:12.629Z,1.80
2022-09-26T12:18:47.019Z,1.97
2022-09-26T12:21:24.326Z,1.63
2022-09-26T12:23:54.455Z,1.50
2022-09-26T12:26:27.115Z,1.80
2022-09-26T12:29:02.761Z,1.23
2022-09-26T12:31:41.016Z,1.60
2022-09-26T12:34:23.814Z,1.57
2022-09-26T12:37:04.036Z,1.77
2022-09-26T12:39:44.653Z,1.57
2022-09-26T12:42:26.648Z,1.67
2022-09-26T12:45:28.168Z,1.70
2022-09-26T12:48:25.182Z,1.50
2022-09-26T12:51:01.954Z,1.60
2022-09-26T12:53:49.108Z,1.73
2022-09-26T12:56:22.349Z,1.70
2022-09-26T12:59:04.424Z,1.97
2022-09-26T13:01:47.412Z,1.70
2022-09-26T13:04:29.101Z,2.00
2022-09-26T13:07:21.048Z,2.00
2022-09-26T13:10:02.511Z,1.50
2022-09-26T13:12:42.655Z,1.50
2022-09-26T13:15:20.120Z,1.80
2022-09-26T13:17:52.184Z,1.60
2022-09-26T13:20:27.227Z,2.10
2022-09-26T13:22:58.714Z,2.07
2022-09-26T13:25:32.036Z,1.50
2022-09-26T13:28:04.973Z,1.80
2022-09-26T13:30:35.609Z,1.80
2022-09-26T13:33:08.397Z,1.90
2022-09-26T13:35:39.548Z,1.80
2022-09-26T13:38:16.188Z,1.60
2022-09-26T13:40:50.796Z,1.70
2022-09-26T13:43:35.478Z,1.90
2022-09-26T13:46:07.444Z,2.43
2022-09-26T13:48:41.914Z,2.40
2022-09-26T13:51:19.143Z,2.50
2022-09-26T13:53:54.385Z,2.37
2022-09-26T13:56:44.086Z,2.70
2022-09-26T13:59:51.373Z,1.93
2022-09-26T14:02:28.804Z,2.53
2022-09-26T14:05:28.045Z,2.40
2022-09-26T14:08:14.611Z,2.80
2022-09-26T14:10:44.233Z,2.07
2022-09-26T14:13:21.718Z,2.13
2022-09-26T14:16:03.298Z,2.50
2022-09-26T14:18:45.745Z,2.10
2022-09-26T14:21:19.254Z,2.20
2022-09-26T14:23:49.738Z,2.00
2022-09-26T14:26:21.878Z,2.10
2022-09-26T14:28:54.529Z,2.33
2022-09-26T14:31:38.461Z,2.67
2022-09-26T14:34:14.650Z,2.33
2022-09-26T14:36:43.202Z,2.37
2022-09-26T14:39:25.642Z,2.70
2022-09-26T14:41:54.121Z,2.43
2022-09-26T14:44:22.473Z,2.60
2022-09-26T14:46:52.897Z,2.70
2022-09-26T14:49:23.660Z,3.17
2022-09-26T14:51:56.553Z,4.93
2022-09-26T14:54:27.613Z,3.20
2022-09-26T14:57:00.884Z,4.00
2022-09-26T14:59:40.143Z,3.27
2022-09-26T15:02:26.854Z,3.47
2022-09-26T15:05:04.110Z,3.80
2022-09-26T15:07:34.729Z,3.70
2022-09-26T15:10:09.320Z,4.00
2022-09-26T15:12:42.317Z,4.00
2022-09-26T15:15:19.279Z,4.40
2022-09-26T15:17:49.569Z,4.70
2022-09-26T15:20:20.134Z,3.43
2022-09-26T15:22:48.429Z,3.50
2022-09-26T15:25:23.405Z,3.67
2022-09-26T15:27:54.845Z,3.77
2022-09-26T15:30:27.043Z,4.23
2022-09-26T15:32:57.503Z,3.97
2022-09-26T15:35:26.651Z,4.00
2022-09-26T15:37:58.611Z,4.53
2022-09-26T15:40:29.103Z,3.47
2022-09-26T15:43:05.902Z,3.90
2022-09-26T15:45:34.558Z,3.47
2022-09-26T15:48:03.979Z,3.30
2022-09-26T15:50:40.301Z,3.27
2022-09-26T15:53:12.326Z,3.73
2022-09-26T15:55:46.733Z,4.77
2022-09-26T15:58:16.914Z,3.93
2022-09-26T16:00:48.330Z,3.90
2022-09-26T16:03:37.422Z,4.13
2022-09-26T16:06:09.802Z,4.57
2022-09-26T16:08:41.397Z,4.10
2022-09-26T16:11:10.721Z,3.80
2022-09-26T16:13:41.846Z,3.53
2022-09-26T16:16:15.123Z,4.53
2022-09-26T16:18:47.577Z,3.63
2022-09-26T16:21:17.641Z,4.20
2022-09-26T16:23:46.173Z,3.57
2022-09-26T16:26:23.765Z,3.93
2022-09-26T16:28:53.709Z,3.57
2022-09-26T16:31:36.355Z,4.27
2022-09-26T16:34:06.862Z,4.43
2022-09-26T16:36:35.322Z,7.50
2022-09-26T16:39:04.667Z,5.27
2022-09-26T16:41:59.927Z,4.43
2022-09-26T16:44:33.464Z,3.97
2022-09-26T16:47:04.572Z,5.93
2022-09-26T16:49:40.144Z,3.57
2022-09-26T16:52:20.377Z,4.53
2022-09-26T16:54:48.685Z,5.23
2022-09-26T16:57:20.051Z,4.83
2022-09-26T16:59:47.896Z,4.40
2022-09-26T17:02:15.133Z,3.97
2022-09-26T17:04:44.219Z,4.40
2022-09-26T17:07:13.903Z,4.60
2022-09-26T17:09:42.677Z,4.93
2022-09-26T17:12:16.089Z,4.73
2022-09-26T17:14:47.698Z,4.70
2022-09-26T17:17:17.266Z,4.70
2022-09-26T17:19:47.437Z,4.43
2022-09-26T17:22:16.317Z,4.57
2022-09-26T17:24:44.173Z,4.33
2022-09-26T17:27:15.341Z,5.50
2022-09-26T17:29:47.338Z,3.90
2022-09-26T17:32:18.902Z,4.60
2022-09-26T17:34:46.485Z,4.90
2022-09-26T17:37:17.713Z,4.80
2022-09-26T17:39:45.337Z,4.37
2022-09-26T17:42:13.616Z,4.80
2022-09-26T17:44:43.061Z,4.53
2022-09-26T17:47:12.637Z,4.87
2022-09-26T17:49:41.101Z,5.73
2022-09-26T17:52:23.880Z,4.43
2022-09-26T17:54:54.054Z,4.07
2022-09-26T17:57:24.387Z,4.43
2022-09-26T17:59:55.305Z,3.70
2022-09-26T18:02:34.402Z,4.00
2022-09-26T18:05:04.370Z,4.20
2022-09-26T18:07:36.209Z,4.27
2022-09-26T18:10:07.150Z,4.00
2022-09-26T18:12:35.654Z,4.07
2022-09-26T18:15:04.758Z,4.13
2022-09-26T18:17:33.794Z,3.90
2022-09-26T18:20:02.172Z,3.73
2022-09-26T18:22:32.444Z,3.70
2022-09-26T18:25:04.572Z,3.00
2022-09-26T18:27:32.234Z,3.60
2022-09-26T18:30:00.101Z,3.80
2022-09-26T18:32:31.749Z,3.77
2022-09-26T18:35:01.379Z,4.30
2022-09-26T18:37:29.440Z,5.40
2022-09-26T18:40:01.385Z,6.00
2022-09-26T18:42:32.985Z,4.77
2022-09-26T18:45:03.480Z,3.97
2022-09-26T18:47:34.125Z,3.80
2022-09-26T18:50:03.219Z,3.43
2022-09-26T18:52:30.949Z,3.20
2022-09-26T18:55:12.458Z,3.20
2022-09-26T18:57:57.587Z,2.67
2022-09-26T19:00:26.637Z,2.33
2022-09-26T19:02:54.621Z,3.03
2022-09-26T19:05:23.749Z,2.17
2022-09-26T19:07:51.945Z,2.27
2022-09-26T19:10:21.250Z,2.57
2022-09-26T19:12:49.582Z,2.40
2022-09-26T19:15:17.649Z,2.60
2022-09-26T19:17:45.251Z,2.90
2022-09-26T19:20:12.797Z,2.83
2022-09-26T19:22:42.125Z,2.50
2022-09-26T19:25:11.575Z,3.27
2022-09-26T19:27:43.348Z,2.60
2022-09-26T19:30:14.931Z,2.20
2022-09-26T19:32:43.895Z,2.73
2022-09-26T19:35:18.767Z,2.20
2022-09-26T19:37:47.807Z,2.13
2022-09-26T19:40:16.886Z,3.37
2022-09-26T19:42:45.060Z,2.50
2022-09-26T19:45:13.763Z,2.47
2022-09-26T19:47:44.362Z,2.50
2022-09-26T19:50:16.610Z,2.30
2022-09-26T19:52:44.316Z,2.30
2022-09-26T19:55:20.411Z,2.40
2022-09-26T19:57:48.114Z,2.10
2022-09-26T20:00:17.609Z,2.33
2022-09-26T20:02:45.623Z,1.90
2022-09-26T20:05:16.873Z,2.17
2022-09-26T20:07:44.665Z,2.23
2022-09-26T20:10:15.769Z,2.30
2022-09-26T20:12:45.053Z,2.30
2022-09-26T20:15:13.372Z,2.40
2022-09-26T20:17:42.225Z,2.23
2022-09-26T20:20:12.732Z,2.50
2022-09-26T20:22:41.817Z,2.47
2022-09-26T20:25:15.596Z,3.13
2022-09-26T20:27:44.749Z,2.47
2022-09-26T20:30:33.605Z,2.97
2022-09-26T20:33:01.373Z,2.60
2022-09-26T20:35:34.470Z,3.13
2022-09-26T20:38:04.904Z,2.83
2022-09-26T20:40:33.434Z,2.80
2022-09-26T20:43:04.670Z,3.00
2022-09-26T20:45:38.616Z,3.47
2022-09-26T20:48:07.933Z,2.87
2022-09-26T20:50:39.185Z,3.03
2022-09-26T20:53:10.601Z,2.97
2022-09-26T20:55:43.217Z,2.90
2022-09-26T20:58:13.100Z,3.30
2022-09-26T21:00:41.293Z,3.00
2022-09-26T21:03:11.354Z,2.83
2022-09-26T21:05:39.231Z,2.90
2022-09-26T21:08:10.129Z,3.13
2022-09-26T21:10:37.941Z,3.00
2022-09-26T21:13:05.497Z,3.50
2022-09-26T21:15:35.027Z,3.97
2022-09-26T21:18:03.113Z,3.47
2022-09-26T21:20:32.552Z,4.30
2022-09-26T21:23:01.489Z,4.30
2022-09-26T21:25:30.288Z,4.57
2022-09-26T21:27:59.749Z,4.93
2022-09-26T21:30:27.368Z,4.90
2022-09-26T21:32:58.951Z,5.20
2022-09-26T21:35:30.406Z,5.57
2022-09-26T21:37:59.074Z,5.40
2022-09-26T21:40:29.338Z,5.83
2022-09-26T21:43:00.101Z,6.70
2022-09-26T21:45:27.959Z,6.10
2022-09-26T21:47:58.134Z,6.50
2022-09-26T21:50:27.629Z,6.77
2022-09-26T21:52:58.113Z,6.83
2022-09-26T21:55:29.692Z,6.40
2022-09-26T21:57:59.902Z,6.47
2022-09-26T22:00:28.325Z,6.77
2022-09-26T22:03:00.261Z,6.97
2022-09-26T22:05:28.409Z,7.33
2022-09-26T22:07:56.966Z,6.73
2022-09-26T22:10:24.977Z,6.00
2022-09-26T22:12:52.984Z,5.97
2022-09-26T22:15:20.835Z,5.40
2022-09-26T22:17:48.698Z,6.10
2022-09-26T22:20:19.024Z,6.27
2022-09-26T22:22:46.697Z,6.00
2022-09-26T22:25:14.664Z,6.23
2022-09-26T22:27:42.433Z,5.63
2022-09-26T22:30:11.523Z,5.73
2022-09-26T22:32:40.162Z,5.97
2022-09-26T22:35:08.695Z,5.83
2022-09-26T22:37:37.948Z,6.33
2022-09-26T22:40:06.740Z,6.00
2022-09-26T22:42:34.632Z,5.60
2022-09-26T22:45:02.257Z,6.93
2022-09-26T22:47:29.823Z,5.67
2022-09-26T22:49:57.545Z,6.17
2022-09-26T22:52:26.541Z,6.10
2022-09-26T22:54:55.907Z,6.00
2022-09-26T22:57:23.550Z,6.57
2022-09-26T22:59:51.215Z,6.23
2022-09-26T23:02:18.974Z,4.70
2022-09-26T23:04:49.637Z,4.27
2022-09-26T23:07:19.350Z,4.00
2022-09-26T23:09:47.297Z,3.83
2022-09-26T23:12:16.411Z,4.10
2022-09-26T23:14:44.559Z,4.20
2022-09-26T23:17:12.667Z,4.10
2022-09-26T23:19:41.198Z,4.10
2022-09-26T23:22:09.085Z,4.03
2022-09-26T23:24:37.065Z,4.30
2022-09-26T23:27:04.858Z,4.27
2022-09-26T23:29:34.212Z,4.20
2022-09-26T23:32:02.409Z,4.10
2022-09-26T23:34:29.990Z,3.60
2022-09-26T23:36:57.633Z,3.90
2022-09-26T23:39:25.284Z,4.10
2022-09-26T23:41:52.952Z,3.73
2022-09-26T23:44:20.520Z,3.87
2022-09-26T23:46:49.450Z,3.40
2022-09-26T23:49:17.034Z,3.93
2022-09-26T23:51:44.612Z,3.60
2022-09-26T23:54:12.429Z,3.57
2022-09-26T23:56:41.735Z,3.77
2022-09-26T23:59:09.329Z,3.70
